Time;durP1;ratioP1;P1;durP2;ratioP2;P2;SDS_P1;SDS_P2;PMS_P1;PMS_P2;Temp;Humidity;BMP_temperature;BMP_pressure;BME280_temperature;BME280_humidity;BME280_pressure;Samples;Min_cycle;Max_cycle;Signal;HPM_P1;HPM_P2
2022/10/06 00:00:47;;;;;;;;;2.25;1.00;;;;;15.83;72.63;102489.81;4915637;28;49704;-75
2022/10/06 00:03:13;;;;;;;;;2.25;1.50;;;;;15.90;72.26;102507.66;4915483;28;49775;-76
2022/10/06 00:05:39;;;;;;;;;2.00;1.25;;;;;15.88;72.04;102505.81;4915540;28;49824;-75
2022/10/06 00:08:05;;;;;;;;;1.00;1.00;;;;;15.82;72.21;102518.88;4915447;28;49898;-75
2022/10/06 00:10:31;;;;;;;;;2.50;1.25;;;;;15.75;71.90;102515.19;4915785;28;50076;-75
2022/10/06 00:12:56;;;;;;;;;3.50;1.75;;;;;15.71;72.33;102519.50;4915181;28;50442;-75
2022/10/06 00:15:27;;;;;;;;;1.00;1.00;;;;;15.66;72.13;102526.41;4915155;28;49929;-76
2022/10/06 00:17:52;;;;;;;;;4.00;1.00;;;;;15.64;72.43;102537.84;4915630;28;49830;-75
2022/10/06 00:20:18;;;;;;;;;3.75;1.00;;;;;15.61;72.45;102537.72;4915615;28;49969;-75
2022/10/06 00:22:47;;;;;;;;;0.00;0.00;;;;;15.51;72.57;102533.88;4915362;28;50695;-75
2022/10/06 00:25:16;;;;;;;;;1.75;1.00;;;;;15.47;72.61;102542.59;4915079;28;49852;-75
2022/10/06 00:27:43;;;;;;;;;1.00;1.00;;;;;15.51;72.75;102552.41;4915202;28;49805;-76
2022/10/06 00:30:13;;;;;;;;;0.25;0.25;;;;;15.45;72.57;102563.75;4915055;28;49651;-74
2022/10/06 00:32:39;;;;;;;;;1.50;1.00;;;;;15.45;73.32;102555.78;4915140;28;50600;-75
2022/10/06 00:35:08;;;;;;;;;2.00;0.50;;;;;15.43;73.53;102573.34;4915303;28;49763;-76
2022/10/06 00:37:36;;;;;;;;;2.75;1.50;;;;;15.40;73.33;102575.91;4897836;28;50075;-75
2022/10/06 00:40:08;;;;;;;;;1.50;0.00;;;;;15.36;73.23;102568.75;4915399;28;50048;-75
2022/10/06 00:42:33;;;;;;;;;3.50;1.00;;;;;15.40;74.21;102575.03;4914344;28;50809;-75
2022/10/06 00:45:04;;;;;;;;;2.00;1.00;;;;;15.34;73.33;102575.72;4914758;28;50136;-75
2022/10/06 00:47:32;;;;;;;;;1.00;1.00;;;;;15.36;73.32;102582.00;4914787;28;49656;-75
2022/10/06 00:50:01;;;;;;;;;2.00;1.00;;;;;15.37;73.85;102590.81;4915153;28;50238;-75
2022/10/06 00:52:29;;;;;;;;;3.00;1.75;;;;;15.31;73.56;102578.28;4914742;28;50530;-76
2022/10/06 00:54:57;;;;;;;;;2.00;1.00;;;;;15.40;73.68;102580.31;4914144;28;49768;-76
2022/10/06 00:57:23;;;;;;;;;2.50;2.50;;;;;15.32;73.68;102564.19;4914723;28;49964;-77
2022/10/06 00:59:48;;;;;;;;;4.00;2.75;;;;;15.29;73.46;102564.13;4914642;28;49885;-74
2022/10/06 01:02:21;;;;;;;;;7.00;1.00;;;;;15.37;73.98;102582.88;4914406;28;50539;-76
2022/10/06 01:04:54;;;;;;;;;1.00;1.00;;;;;15.32;73.09;102598.59;4914706;28;49725;-74
2022/10/06 01:07:22;;;;;;;;;2.50;2.00;;;;;15.32;74.10;102595.97;4914691;28;49612;-75
2022/10/06 01:09:48;;;;;;;;;2.25;1.25;;;;;15.22;74.14;102591.25;4914978;28;49937;-75
2022/10/06 01:12:14;;;;;;;;;4.00;1.00;;;;;15.17;73.51;102587.56;4914385;28;50352;-76
2022/10/06 01:14:40;;;;;;;;;1.50;1.50;;;;;15.22;73.36;102598.28;4914476;28;49801;-75
2022/10/06 01:17:23;;;;;;;;;4.00;2.00;;;;;15.16;73.90;102612.22;4914575;28;49794;-75
2022/10/06 01:19:55;;;;;;;;;2.75;2.00;;;;;15.08;73.63;102605.81;4914723;28;49868;-75
2022/10/06 01:22:27;;;;;;;;;2.25;2.00;;;;;15.04;74.03;102607.44;4896752;28;52790;-75
2022/10/06 01:24:53;;;;;;;;;3.50;2.75;;;;;15.02;73.99;102616.16;4914358;28;50127;-76
2022/10/06 01:27:20;;;;;;;;;2.00;2.00;;;;;14.99;74.59;102624.00;4914448;28;49911;-75
2022/10/06 01:29:51;;;;;;;;;3.00;2.00;;;;;14.94;74.50;102620.31;4914442;28;49893;-74
2022/10/06 01:32:16;;;;;;;;;1.00;1.00;;;;;14.97;74.63;102618.69;4914236;28;51705;-75
2022/10/06 01:34:41;;;;;;;;;0.00;0.00;;;;;14.87;74.85;102614.84;4914258;28;49607;-76
2022/10/06 01:37:07;;;;;;;;;2.00;1.00;;;;;14.81;75.02;102617.28;4914276;28;49813;-76
2022/10/06 01:39:32;;;;;;;;;5.50;1.25;;;;;14.89;74.90;102634.28;4914426;28;49689;-75
2022/10/06 01:41:57;;;;;;;;;2.50;1.25;;;;;14.81;74.88;102619.03;4913511;28;59759;-75
2022/10/06 01:44:23;;;;;;;;;2.75;1.00;;;;;14.80;75.17;102619.88;4913404;28;62138;-76
2022/10/06 01:46:48;;;;;;;;;9.75;1.00;;;;;14.81;75.72;102629.59;4913873;28;56265;-75
2022/10/06 01:49:13;;;;;;;;;2.00;1.00;;;;;14.75;74.94;102622.34;4913746;28;52906;-76
2022/10/06 01:51:38;;;;;;;;;0.75;0.75;;;;;14.70;74.58;102617.78;4912789;28;51601;-76
2022/10/06 01:54:04;;;;;;;;;1.00;1.00;;;;;14.71;74.36;102631.03;4913951;28;49863;-76
2022/10/06 01:56:29;;;;;;;;;3.00;1.00;;;;;14.67;74.55;102625.56;4884063;28;49809;-75
2022/10/06 01:58:54;;;;;;;;;2.00;2.00;;;;;14.69;74.74;102638.03;4913424;28;55254;-76
2022/10/06 02:01:20;;;;;;;;;3.25;3.00;;;;;14.62;74.51;102627.19;4913536;28;49787;-76
2022/10/06 02:03:45;;;;;;;;;3.50;1.50;;;;;14.65;74.89;102641.38;4914024;28;50074;-75
2022/10/06 02:06:10;;;;;;;;;1.75;0.75;;;;;14.51;74.70;102619.78;4912847;28;49847;-76
2022/10/06 02:08:36;;;;;;;;;1.50;1.50;;;;;14.60;74.83;102643.00;4914177;28;49828;-75
2022/10/06 02:11:09;;;;;;;;;1.75;1.00;;;;;14.57;74.89;102645.50;4913732;28;50743;-76
2022/10/06 02:13:36;;;;;;;;;2.00;2.00;;;;;14.55;74.75;102655.13;4908286;28;49723;-75
2022/10/06 02:16:05;;;;;;;;;2.75;2.00;;;;;14.51;74.58;102643.56;4913230;28;49719;-76
2022/10/06 02:18:30;;;;;;;;;3.50;1.00;;;;;14.40;74.82;102642.28;4913778;28;49873;-76
2022/10/06 02:20:55;;;;;;;;;0.00;0.00;;;;;14.23;74.86;102624.94;4913385;28;50580;-76
2022/10/06 02:23:21;;;;;;;;;2.75;0.00;;;;;14.39;74.73;102653.69;4913862;28;49846;-76
2022/10/06 02:25:46;;;;;;;;;2.00;2.00;;;;;14.30;74.64;102650.72;4913734;28;49965;-76
2022/10/06 02:28:11;;;;;;;;;3.75;2.75;;;;;14.35;74.95;102672.00;4913435;28;50069;-75
2022/10/06 02:30:37;;;;;;;;;5.75;1.00;;;;;14.22;74.80;102661.00;4913028;28;49717;-75
2022/10/06 02:33:02;;;;;;;;;0.00;0.00;;;;;14.30;75.13;102674.50;4913127;28;54966;-75
2022/10/06 02:35:27;;;;;;;;;4.00;2.50;;;;;14.24;75.15;102669.88;4913484;28;49613;-76
2022/10/06 02:37:53;;;;;;;;;1.75;1.00;;;;;14.22;75.24;102663.66;4912808;28;56332;-76
2022/10/06 02:40:18;;;;;;;;;0.50;0.50;;;;;14.19;75.13;102670.59;4913129;28;51137;-76
2022/10/06 02:42:44;;;;;;;;;2.00;2.00;;;;;14.16;75.08;102670.44;4913115;28;54249;-76
2022/10/06 02:45:10;;;;;;;;;1.50;1.50;;;;;14.18;75.25;102676.69;4913311;28;49770;-75
2022/10/06 02:47:35;;;;;;;;;2.00;1.00;;;;;14.04;75.55;102660.34;4913255;28;49711;-76
2022/10/06 02:50:04;;;;;;;;;0.50;0.50;;;;;14.00;75.11;102661.09;4912981;28;50360;-76
2022/10/06 02:52:34;;;;;;;;;2.00;0.50;;;;;14.05;75.50;102670.06;4913158;28;49922;-78
2022/10/06 02:55:03;;;;;;;;;2.50;1.25;;;;;13.96;75.17;102672.34;4912969;28;49804;-73
2022/10/06 02:57:28;;;;;;;;;2.00;2.00;;;;;14.03;75.44;102695.50;4913344;28;49790;-74
2022/10/06 02:59:54;;;;;;;;;3.00;2.75;;;;;13.95;75.71;102686.41;4912964;28;49871;-73
2022/10/06 03:02:19;;;;;;;;;3.00;2.00;;;;;13.93;75.46;102689.00;4913008;28;49826;-77
2022/10/06 03:04:44;;;;;;;;;3.50;1.75;;;;;13.84;75.68;102674.53;4913132;28;49764;-77
2022/10/06 03:07:09;;;;;;;;;6.00;1.00;;;;;13.89;75.57;102686.16;4912721;28;53379;-76
2022/10/06 03:09:35;;;;;;;;;3.75;2.50;;;;;13.87;75.95;102696.66;4912002;28;69808;-78
2022/10/06 03:12:00;;;;;;;;;4.50;1.50;;;;;13.83;75.85;102694.75;4912512;28;52538;-72
2022/10/06 03:14:25;;;;;;;;;1.25;1.25;;;;;13.86;75.69;102702.78;4913203;28;49841;-78
2022/10/06 03:16:51;;;;;;;;;2.00;2.00;;;;;13.83;75.58;102697.41;4912600;28;49850;-78
2022/10/06 03:19:16;;;;;;;;;3.00;1.75;;;;;13.79;75.75;102705.13;4912868;28;50418;-78
2022/10/06 03:21:43;;;;;;;;;3.00;0.50;;;;;13.79;76.04;102710.41;4912731;28;49717;-78
2022/10/06 03:24:09;;;;;;;;;1.50;0.00;;;;;13.78;76.05;102708.63;4912859;28;49724;-77
2022/10/06 03:26:37;;;;;;;;;2.75;2.75;;;;;13.74;76.34;102710.25;4912682;28;49908;-77
2022/10/06 03:29:04;;;;;;;;;2.00;2.00;;;;;13.71;76.38;102713.69;4912398;28;49931;-77
2022/10/06 03:31:29;;;;;;;;;2.25;1.75;;;;;13.48;76.18;102681.94;4912410;28;49712;-76
2022/10/06 03:33:55;;;;;;;;;2.00;2.00;;;;;13.51;76.07;102695.22;4912147;28;59225;-77
2022/10/06 03:36:22;;;;;;;;;2.50;1.75;;;;;13.64;76.35;102724.81;4912434;28;49898;-77
2022/10/06 03:38:48;;;;;;;;;2.00;1.00;;;;;13.61;76.54;102730.00;4912469;28;50367;-77
2022/10/06 03:41:21;;;;;;;;;1.00;1.00;;;;;13.56;76.75;102726.25;4912416;28;49778;-77
2022/10/06 03:43:48;;;;;;;;;9.00;3.50;;;;;13.55;76.36;102734.13;4912672;28;49855;-74
2022/10/06 03:46:17;;;;;;;;;4.75;2.00;;;;;13.48;76.21;102740.88;4912217;28;49615;-74
2022/10/06 03:48:43;;;;;;;;;9.00;3.75;;;;;13.44;76.27;102733.69;4909496;28;50559;-75
2022/10/06 03:51:16;;;;;;;;;1.50;1.50;;;;;13.45;76.58;102743.41;4891612;29;49793;-77
2022/10/06 03:53:49;;;;;;;;;2.75;0.75;;;;;13.43;76.64;102750.34;4912159;28;49792;-77
2022/10/06 03:56:16;;;;;;;;;8.00;2.00;;;;;13.42;75.95;102751.19;4909949;28;49818;-70
2022/10/06 03:58:44;;;;;;;;;5.00;2.00;;;;;13.36;75.80;102749.19;4912434;28;50702;-74
2022/10/06 04:01:16;;;;;;;;;6.00;1.00;;;;;13.36;76.65;102761.50;4894967;28;49775;-74
2022/10/06 04:03:41;;;;;;;;;5.25;2.75;;;;;13.32;76.05;102760.47;4911732;28;49795;-74
2022/10/06 04:06:12;;;;;;;;;1.00;1.00;;;;;13.30;76.13;102758.59;4912251;28;49740;-75
2022/10/06 04:08:38;;;;;;;;;2.75;1.00;;;;;13.31;77.56;102765.66;4906160;28;50574;-74
2022/10/06 04:11:15;;;;;;;;;2.50;1.75;;;;;13.30;76.33;102771.78;4905740;28;49674;-75
2022/10/06 04:13:42;;;;;;;;;6.50;3.25;;;;;13.28;75.89;102776.09;4912409;28;49969;-75
2022/10/06 04:16:11;;;;;;;;;2.25;2.00;;;;;13.27;75.91;102790.13;4912063;28;50081;-76
2022/10/06 04:18:37;;;;;;;;;5.25;2.50;;;;;13.01;75.85;102730.97;4912005;28;51054;-75
2022/10/06 04:21:03;;;;;;;;;6.75;2.50;;;;;13.24;75.89;102777.72;4911969;28;49683;-75
2022/10/06 04:23:28;;;;;;;;;1.00;1.00;;;;;13.23;76.04;102783.81;4912211;28;50118;-75
2022/10/06 04:26:01;;;;;;;;;4.50;3.75;;;;;13.00;76.12;102745.88;4912322;28;49940;-75
2022/10/06 04:28:27;;;;;;;;;3.00;1.50;;;;;13.09;76.17;102771.75;4905442;28;51322;-76
2022/10/06 04:30:59;;;;;;;;;2.00;1.75;;;;;13.17;76.26;102791.44;4897577;28;50085;-74
2022/10/06 04:33:25;;;;;;;;;4.00;1.00;;;;;13.13;76.32;102790.41;4915442;28;49862;-76
2022/10/06 04:35:58;;;;;;;;;3.50;2.50;;;;;13.04;76.59;102782.13;4915330;28;50028;-75
2022/10/06 04:38:24;;;;;;;;;6.75;3.00;;;;;13.10;76.27;102792.91;4911059;28;50957;-76
2022/10/06 04:40:50;;;;;;;;;4.00;0.25;;;;;13.09;76.39;102801.66;4914950;28;49666;-75
2022/10/06 04:43:15;;;;;;;;;3.00;0.75;;;;;13.01;76.69;102788.97;4915242;28;49849;-76
2022/10/06 04:45:41;;;;;;;;;3.25;3.00;;;;;13.07;76.32;102799.78;4915103;28;49755;-75
2022/10/06 04:48:06;;;;;;;;;11.00;6.50;;;;;13.05;76.52;102810.28;4914861;28;50019;-76
2022/10/06 04:50:31;;;;;;;;;3.75;2.00;;;;;13.05;76.63;102806.75;4897561;28;49965;-75
2022/10/06 04:52:57;;;;;;;;;3.00;2.00;;;;;12.97;76.75;102806.41;4914407;28;62135;-76
2022/10/06 04:55:22;;;;;;;;;2.00;2.00;;;;;13.00;77.02;102803.88;4913474;28;49757;-74
2022/10/06 04:57:47;;;;;;;;;7.75;6.00;;;;;12.99;77.50;102819.66;4913875;28;68822;-76
2022/10/06 05:00:21;;;;;;;;;5.75;5.00;;;;;12.96;77.20;102812.50;4914245;28;61252;-76
2022/10/06 05:02:47;;;;;;;;;6.00;4.75;;;;;12.89;77.31;102805.16;4914719;28;49822;-76
2022/10/06 05:05:12;;;;;;;;;5.00;3.75;;;;;12.92;77.06;102820.19;4914904;28;49923;-75
2022/10/06 05:07:38;;;;;;;;;3.25;3.00;;;;;12.75;77.20;102807.22;4916280;28;49857;-77
2022/10/06 05:10:04;;;;;;;;;5.25;4.00;;;;;12.86;77.38;102823.50;4922783;28;49692;-76
2022/10/06 05:12:29;;;;;;;;;4.50;2.25;;;;;12.86;77.62;102827.03;4929767;28;49707;-71
2022/10/06 05:14:55;;;;;;;;;3.75;2.75;;;;;12.86;77.51;102832.31;4930239;28;49672;-71
2022/10/06 05:17:20;;;;;;;;;3.50;3.50;;;;;12.79;77.72;102824.94;4930361;28;49921;-72
2022/10/06 05:19:45;;;;;;;;;2.75;2.75;;;;;12.76;78.01;102813.38;4929231;28;57927;-73
2022/10/06 05:22:11;;;;;;;;;4.00;2.00;;;;;12.81;77.76;102822.38;4932210;28;49293;-70
2022/10/06 05:24:36;;;;;;;;;2.75;1.50;;;;;12.74;78.23;102826.50;4932069;28;49721;-76
2022/10/06 05:27:02;;;;;;;;;1.75;1.75;;;;;12.76;78.15;102831.81;4930239;28;49745;-73
2022/10/06 05:29:28;;;;;;;;;8.25;3.75;;;;;12.65;77.83;102814.63;4930583;28;49455;-73
2022/10/06 05:31:54;;;;;;;;;2.50;2.50;;;;;12.73;77.95;102839.56;4929322;28;49606;-71
2022/10/06 05:34:20;;;;;;;;;2.75;2.75;;;;;12.63;78.38;102824.19;4929076;28;49441;-73
2022/10/06 05:36:46;;;;;;;;;0.25;0.25;;;;;12.63;78.54;102827.72;4910566;28;50410;-72
2022/10/06 05:39:11;;;;;;;;;2.25;2.00;;;;;12.69;78.33;102845.56;4930073;28;49477;-75
2022/10/06 05:41:37;;;;;;;;;2.50;2.50;;;;;12.70;78.26;102853.53;4929538;28;49709;-73
2022/10/06 05:44:02;;;;;;;;;1.00;1.00;;;;;12.69;78.38;102856.09;4931062;28;49409;-72
2022/10/06 05:46:33;;;;;;;;;6.00;2.00;;;;;12.66;78.21;102853.31;4931328;28;49620;-71
2022/10/06 05:49:02;;;;;;;;;3.50;3.50;;;;;12.65;78.60;102857.69;4931562;28;49379;-72
2022/10/06 05:51:29;;;;;;;;;5.00;4.25;;;;;12.66;79.88;102854.22;4932139;28;49314;-74
2022/10/06 05:53:55;;;;;;;;;4.50;3.50;;;;;12.66;78.37;102859.50;4927018;28;49264;-72
2022/10/06 05:56:24;;;;;;;;;5.25;3.25;;;;;12.64;78.03;102857.59;4925417;28;50680;-78
2022/10/06 05:58:51;;;;;;;;;4.00;2.50;;;;;12.58;78.90;102851.22;4914825;28;49801;-73
2022/10/06 06:01:21;;;;;;;;;4.25;3.25;;;;;12.51;78.48;102821.91;4911277;28;49358;-72
2022/10/06 06:03:53;;;;;;;;;3.00;2.00;;;;;12.71;78.41;102864.97;4912670;28;49772;-73
2022/10/06 06:06:24;;;;;;;;;7.50;3.75;;;;;12.69;78.90;102864.00;4913682;28;50004;-73
2022/10/06 06:08:55;;;;;;;;;5.00;3.50;;;;;12.63;78.11;102861.06;4917271;28;49616;-72
2022/10/06 06:11:24;;;;;;;;;5.50;3.25;;;;;12.62;77.93;102868.06;4918456;28;49845;-72
2022/10/06 06:13:51;;;;;;;;;4.50;3.75;;;;;12.65;78.64;102867.34;4913903;28;49808;-73
2022/10/06 06:16:16;;;;;;;;;5.50;3.75;;;;;12.49;78.37;102839.38;4917585;28;49633;-75
2022/10/06 06:18:41;;;;;;;;;8.75;5.50;;;;;12.63;78.62;102868.97;4914097;28;49996;-72
2022/10/06 06:21:08;;;;;;;;;6.50;2.50;;;;;12.61;78.34;102867.16;4914289;28;55447;-72
2022/10/06 06:23:37;;;;;;;;;5.25;4.25;;;;;12.65;78.18;102876.13;4918484;28;50074;-80
2022/10/06 06:26:06;;;;;;;;;6.50;5.25;;;;;12.48;78.01;102856.91;4915779;28;49921;-79
2022/10/06 06:28:32;;;;;;;;;6.50;5.25;;;;;12.57;78.04;102883.69;4913548;28;49625;-74
2022/10/06 06:30:59;;;;;;;;;5.50;4.25;;;;;12.50;78.11;102881.59;4913513;28;49756;-71
2022/10/06 06:33:24;;;;;;;;;6.25;3.75;;;;;12.41;78.16;102860.09;4918573;28;50032;-71
2022/10/06 06:35:50;;;;;;;;;2.75;2.75;;;;;12.58;78.67;102889.84;4913348;28;49847;-71
2022/10/06 06:38:15;;;;;;;;;4.50;4.50;;;;;12.54;78.71;102883.53;4912367;28;66436;-70
2022/10/06 06:40:40;;;;;;;;;6.75;5.50;;;;;12.54;78.14;102875.63;4911531;28;50123;-70
2022/10/06 06:43:06;;;;;;;;;9.00;5.00;;;;;12.52;78.40;102874.66;4918739;28;49799;-72
2022/10/06 06:45:31;;;;;;;;;7.75;4.75;;;;;12.75;78.67;102906.44;4908986;28;49844;-71
2022/10/06 06:47:56;;;;;;;;;6.25;4.25;;;;;12.79;78.50;102911.91;4917891;28;49952;-72
2022/10/06 06:50:22;;;;;;;;;5.25;5.00;;;;;12.74;78.28;102901.97;4909053;28;49739;-74
2022/10/06 06:52:47;;;;;;;;;9.00;4.25;;;;;12.73;78.52;102895.81;4921193;28;57461;-73
2022/10/06 06:55:12;;;;;;;;;9.25;5.00;;;;;12.85;78.36;102917.47;4927760;28;50249;-75
2022/10/06 06:57:38;;;;;;;;;6.00;4.50;;;;;12.87;78.45;102918.44;4916849;28;49780;-74
2022/10/06 07:00:06;;;;;;;;;8.75;6.25;;;;;12.92;78.03;102920.38;4906939;28;54591;-71
2022/10/06 07:02:32;;;;;;;;;7.25;5.25;;;;;12.96;78.89;102923.25;4909374;28;49739;-73
2022/10/06 07:04:57;;;;;;;;;8.75;4.25;;;;;12.91;78.45;102914.22;4914898;28;49750;-74
2022/10/06 07:07:22;;;;;;;;;7.00;2.50;;;;;13.00;76.88;102940.09;4916721;28;49981;-74
2022/10/06 07:09:48;;;;;;;;;5.00;3.25;;;;;12.92;77.51;102913.38;4913349;28;49906;-75
2022/10/06 07:12:13;;;;;;;;;2.75;2.25;;;;;13.18;77.01;102933.00;4918686;28;60156;-69
2022/10/06 07:25:05;;;;;;;;;3.75;3.25;;;;;13.14;76.69;102937.25;4920827;28;49589;-69
2022/10/06 07:25:35;;;;;;;;;5.75;3.75;;;;;13.23;76.22;102941.19;4913851;28;49992;-71
2022/10/06 07:28:01;;;;;;;;;4.00;2.75;;;;;13.34;75.70;102954.00;4912740;28;49980;-70
2022/10/06 07:30:28;;;;;;;;;10.75;5.75;;;;;13.40;76.57;102953.34;4912416;28;49641;-70
2022/10/06 07:32:53;;;;;;;;;2.75;2.75;;;;;13.46;75.02;102964.19;4918147;28;49812;-68
2022/10/06 07:35:20;;;;;;;;;3.75;3.25;;;;;13.45;75.54;102954.47;4913153;28;50049;-69
2022/10/06 07:37:47;;;;;;;;;6.75;4.25;;;;;13.49;76.06;102958.13;4910825;28;50027;-68
2022/10/06 07:40:13;;;;;;;;;6.50;6.25;;;;;13.56;75.63;102969.03;4913454;28;49731;-68
2022/10/06 07:42:50;;;;;;;;;7.00;5.50;;;;;13.54;75.48;102962.78;4904743;28;50184;-68
2022/10/06 07:45:43;;;;;;;;;8.25;6.00;;;;;13.69;75.63;102981.91;4911616;28;50034;-67
2022/10/06 07:48:14;;;;;;;;;4.00;2.75;;;;;13.77;75.25;102984.00;4913942;28;49625;-69
2022/10/06 07:50:41;;;;;;;;;8.00;3.25;;;;;13.54;74.50;102933.75;4907383;28;50020;-69
2022/10/06 07:53:10;;;;;;;;;5.25;5.25;;;;;13.87;74.59;102987.09;4911983;28;49803;-69
2022/10/06 07:55:38;;;;;;;;;6.00;4.50;;;;;13.90;75.00;102983.69;4911858;28;50834;-69
2022/10/06 07:58:17;;;;;;;;;11.00;4.75;;;;;13.92;75.48;102985.56;4913231;28;50098;-70
2022/10/06 08:00:43;;;;;;;;;6.50;4.00;;;;;14.01;74.19;102985.03;4914146;28;49709;-69
2022/10/06 08:03:11;;;;;;;;;6.50;3.25;;;;;14.03;74.27;102971.06;4914212;28;49888;-68
2022/10/06 08:05:38;;;;;;;;;4.00;2.50;;;;;14.09;73.19;102982.69;4916717;28;52521;-70
2022/10/06 08:08:04;;;;;;;;;6.25;4.75;;;;;14.22;73.41;102990.31;4917125;28;49810;-70
2022/10/06 08:10:30;;;;;;;;;5.00;4.50;;;;;14.18;72.99;102981.34;4917675;28;49783;-69
2022/10/06 08:12:55;;;;;;;;;4.00;3.00;;;;;14.29;72.87;102995.94;4918374;28;49601;-70
2022/10/06 08:15:20;;;;;;;;;7.75;3.50;;;;;14.33;72.90;102996.94;4915649;28;49648;-70
2022/10/06 08:17:46;;;;;;;;;6.25;2.75;;;;;14.35;71.81;103000.53;4916486;28;50031;-70
2022/10/06 08:20:12;;;;;;;;;6.00;3.00;;;;;14.36;71.74;102988.22;4918409;28;50033;-70
2022/10/06 08:22:38;;;;;;;;;4.75;3.00;;;;;14.45;71.44;103001.84;4917001;28;49625;-70
2022/10/06 08:25:06;;;;;;;;;3.75;1.75;;;;;14.51;71.00;103002.09;4915076;28;50552;-78
2022/10/06 08:27:33;;;;;;;;;5.50;3.25;;;;;14.52;70.43;103009.19;4915238;28;49653;-69
2022/10/06 08:29:58;;;;;;;;;0.75;0.75;;;;;14.56;70.42;103005.81;4915055;28;49751;-70
2022/10/06 08:32:24;;;;;;;;;3.75;1.25;;;;;14.59;70.50;103006.88;4919307;28;52390;-72
2022/10/06 08:34:49;;;;;;;;;3.00;2.00;;;;;14.70;71.08;103015.22;4914754;28;51921;-70
2022/10/06 08:37:22;;;;;;;;;4.25;3.25;;;;;14.71;70.60;103008.19;4914848;28;49886;-71
2022/10/06 08:39:49;;;;;;;;;4.25;3.00;;;;;14.83;71.96;103009.56;4919866;28;49812;-72
2022/10/06 08:42:41;;;;;;;;;3.00;1.50;;;;;14.78;71.44;102989.09;4924006;28;49658;-70
2022/10/06 08:45:34;;;;;;;;;2.25;2.25;;;;;14.93;70.92;103005.53;4907701;28;50566;-71
2022/10/06 08:48:04;;;;;;;;;7.25;2.50;;;;;15.04;70.28;103020.06;4921381;28;50163;-73
2022/10/06 08:50:37;;;;;;;;;3.50;2.75;;;;;15.04;69.75;103016.50;4922370;28;49632;-68
2022/10/06 08:53:31;;;;;;;;;1.75;1.75;;;;;15.12;70.05;103023.00;4926641;28;49718;-69
2022/10/06 08:56:18;;;;;;;;;3.25;1.75;;;;;15.16;69.87;103019.66;4914492;28;50218;-69
2022/10/06 08:58:58;;;;;;;;;3.75;1.75;;;;;15.19;68.27;103027.69;4914663;28;49653;-70
2022/10/06 09:01:40;;;;;;;;;3.00;2.50;;;;;15.22;68.63;103030.44;4914509;28;49704;-69
2022/10/06 09:04:06;;;;;;;;;5.00;3.00;;;;;15.26;68.72;103027.09;4915801;28;49826;-70
2022/10/06 09:07:11;;;;;;;;;2.75;2.00;;;;;15.33;69.34;103025.56;4914841;28;50537;-70
2022/10/06 09:10:00;;;;;;;;;1.00;1.00;;;;;15.43;69.63;103031.22;4885785;28;49783;-71
2022/10/06 09:12:29;;;;;;;;;3.25;2.75;;;;;15.35;68.81;103008.91;4915576;28;49692;-69
2022/10/06 09:15:19;;;;;;;;;5.25;4.50;;;;;15.53;68.07;103031.56;4915571;28;49744;-69
2022/10/06 09:17:53;;;;;;;;;3.75;1.50;;;;;15.46;68.56;103011.94;4914604;28;49817;-70
2022/10/06 09:20:31;;;;;;;;;4.50;2.00;;;;;15.63;69.12;103026.72;4914680;28;49963;-70
2022/10/06 09:22:57;;;;;;;;;7.00;3.00;;;;;15.68;69.21;103034.81;4921934;28;49796;-68
2022/10/06 09:25:27;;;;;;;;;3.50;1.75;;;;;15.67;67.89;103028.63;4923025;28;49865;-67
2022/10/06 09:27:55;;;;;;;;;2.75;2.75;;;;;15.67;67.52;103022.44;4915908;28;49811;-69
2022/10/06 09:30:21;;;;;;;;;3.00;1.50;;;;;15.56;68.03;102989.34;4913516;28;49848;-69
2022/10/06 09:32:53;;;;;;;;;2.25;2.00;;;;;15.83;66.65;103037.13;4912480;28;50012;-70
2022/10/06 09:35:24;;;;;;;;;6.00;3.50;;;;;15.88;67.83;103039.09;4915306;28;49792;-68
2022/10/06 09:37:52;;;;;;;;;2.50;2.00;;;;;15.95;67.74;103040.22;4917356;28;51000;-71
2022/10/06 09:40:39;;;;;;;;;6.75;2.75;;;;;15.99;66.97;103042.09;4925798;28;49211;-70
2022/10/06 09:43:28;;;;;;;;;1.75;1.00;;;;;15.93;67.44;103031.31;4914196;28;50029;-72
2022/10/06 09:45:55;;;;;;;;;3.25;3.00;;;;;16.08;67.61;103041.53;4915457;28;50103;-74
2022/10/06 09:48:25;;;;;;;;;2.25;2.00;;;;;16.03;66.61;103028.13;4927469;28;50166;-78
2022/10/06 09:51:13;;;;;;;;;0.50;0.50;;;;;16.16;68.02;103034.75;4929693;28;49388;-70
2022/10/06 09:53:43;;;;;;;;;3.50;2.00;;;;;15.96;66.19;102995.22;4929429;28;49919;-73
2022/10/06 09:56:20;;;;;;;;;2.75;2.25;;;;;16.12;67.71;103019.59;4920833;28;49679;-77
2022/10/06 09:58:57;;;;;;;;;3.25;2.00;;;;;15.98;65.94;102992.63;4915904;28;50888;-79
2022/10/06 10:01:28;;;;;;;;;4.00;3.25;;;;;15.91;66.61;102965.00;4889480;28;49867;-80
2022/10/06 10:03:59;;;;;;;;;1.75;1.75;;;;;16.38;66.37;103031.94;4912641;28;49669;-82
2022/10/06 10:06:33;;;;;;;;;5.00;3.50;;;;;16.44;66.64;103028.59;4914728;28;49727;-72
2022/10/06 10:09:20;;;;;;;;;3.00;2.00;;;;;16.51;66.39;103036.81;4914143;28;50494;-72
2022/10/06 10:12:23;;;;;;;;;6.25;3.00;;;;;16.52;64.13;103020.06;4920524;28;49642;-72
2022/10/06 10:15:00;;;;;;;;;4.25;2.50;;;;;16.58;64.38;103027.28;4919794;28;49655;-74
2022/10/06 10:17:31;;;;;;;;;4.00;2.00;;;;;16.64;64.31;103031.91;4896717;28;50016;-75
2022/10/06 10:19:57;;;;;;;;;5.00;5.00;;;;;16.67;64.33;103026.69;4919569;28;49945;-73
2022/10/06 10:22:29;;;;;;;;;9.25;4.00;;;;;16.70;64.78;103013.59;4923246;28;49475;-73
2022/10/06 10:25:07;;;;;;;;;3.00;2.00;;;;;16.75;65.77;103020.81;4921595;28;49902;-74
2022/10/06 10:27:38;;;;;;;;;4.00;2.00;;;;;16.69;61.31;103002.03;4921555;28;49711;-75
2022/10/06 10:30:09;;;;;;;;;4.00;2.00;;;;;16.84;63.46;103014.88;4925747;28;51667;-79
2022/10/06 10:32:48;;;;;;;;;2.75;2.25;;;;;16.95;62.92;103020.53;4919146;28;49598;-74
2022/10/06 10:35:21;;;;;;;;;3.50;0.50;;;;;16.88;60.90;102998.19;4918861;28;49436;-76
2022/10/06 10:37:57;;;;;;;;;3.50;2.00;;;;;17.04;60.63;103023.44;4914250;28;49618;-76
2022/10/06 10:40:26;;;;;;;;;3.75;3.00;;;;;17.11;61.51;103015.72;4915058;28;51231;-76
2022/10/06 10:43:06;;;;;;;;;4.00;2.50;;;;;17.12;62.42;103006.00;4913287;28;49738;-77
2022/10/06 10:45:35;;;;;;;;;1.00;1.00;;;;;17.14;59.08;102993.69;4912947;28;49987;-76
2022/10/06 10:48:26;;;;;;;;;3.00;3.00;;;;;17.42;58.89;103013.97;4913060;28;49956;-76
2022/10/06 10:51:00;;;;;;;;;1.00;1.00;;;;;17.43;59.07;103014.00;4913114;28;49768;-77
2022/10/06 10:53:46;;;;;;;;;1.50;0.25;;;;;17.40;58.52;103005.94;4902134;28;49917;-77
2022/10/06 10:56:16;;;;;;;;;1.00;1.00;;;;;17.18;58.02;102963.75;4914736;28;49865;-78
2022/10/06 10:58:43;;;;;;;;;4.75;2.50;;;;;17.17;57.98;102964.56;4907668;28;50065;-77
2022/10/06 11:01:14;;;;;;;;;1.75;1.50;;;;;17.42;59.18;103006.00;4912686;28;51529;-77
2022/10/06 11:03:40;;;;;;;;;2.00;1.50;;;;;17.34;58.80;102999.56;4913247;28;49750;-78
2022/10/06 11:06:27;;;;;;;;;3.25;2.00;;;;;17.46;58.53;103013.19;4912921;28;49888;-78
2022/10/06 11:09:04;;;;;;;;;1.25;1.25;;;;;17.43;57.19;103003.38;4913366;28;49847;-76
2022/10/06 11:11:47;;;;;;;;;2.00;0.75;;;;;17.49;58.10;103007.97;4913141;28;49874;-77
2022/10/06 11:14:39;;;;;;;;;1.25;1.00;;;;;17.57;59.18;103008.19;4912946;28;49704;-76
2022/10/06 11:17:17;;;;;;;;;1.00;1.00;;;;;17.62;59.14;102995.91;4912067;28;49923;-78
2022/10/06 11:19:53;;;;;;;;;4.00;2.50;;;;;17.69;58.08;103004.13;4913368;28;49806;-77
2022/10/06 11:22:40;;;;;;;;;0.50;0.50;;;;;17.78;58.69;103003.50;4895189;28;51879;-75
2022/10/06 11:25:43;;;;;;;;;3.00;0.75;;;;;17.90;57.49;103003.81;4912507;28;49835;-76
2022/10/06 11:28:12;;;;;;;;;3.00;1.00;;;;;17.99;55.76;102992.50;4903235;28;49678;-76
2022/10/06 11:30:58;;;;;;;;;3.00;2.00;;;;;17.95;56.02;102949.03;4912878;28;49854;-76
2022/10/06 11:33:42;;;;;;;;;1.00;0.75;;;;;18.40;54.18;102982.00;4912647;28;50682;-75
2022/10/06 11:36:14;;;;;;;;;1.00;1.00;;;;;18.56;52.48;102981.50;4912295;28;49720;-76
2022/10/06 11:39:03;;;;;;;;;4.25;2.00;;;;;18.42;50.87;102941.28;4914337;28;50191;-75
2022/10/06 11:41:37;;;;;;;;;4.00;3.00;;;;;18.92;53.66;102983.25;4915678;28;50044;-75
2022/10/06 11:44:12;;;;;;;;;3.50;1.50;;;;;19.08;51.03;102978.25;4915597;28;50592;-75